首页
METAR-TAF:

METAR-TAF

机场 :

珀斯機場

珀斯, 澳大利亚

纬度: 31-56S, 经度: 115-57E, 海拔: 20米

当前天气观测

该预报发布于18分钟前的02:00 UTC
风速15节,风向西
温度 19°C
湿度 68%
气压 1016 hPa
能見度: 8000
散云层高于2600英尺
多云层高于5000英尺
小阵雨

METAR: YPPH 210200Z 28015KT 8000 -SHRA SCT026 BKN050 19/13 Q1016 INTER 0200/0500 27020G30KT 4000 SHRA BKN015

时间: 10:18 (02:18 UTC)

预报

该预报发布于3小时和21分钟前的22:57 UTC
预报有效从21日的 00点(UTC)到 22日的 06点(UTC)
风速18节,风向西
能见度10公里或以上
散云层高于3000英尺
多云层高于3500英尺
小阵雨
成为
从 21日的 06点(UTC)到 21日的 08点(UTC)
风速16节,风向西转西南
能见度10公里或以上
多云层高于3500英尺
从 21日的 1200点(UTC)
风速20节,风向西,有时为30节阵风
能見度: 4000
多云层高于4500英尺
多云层高于1500英尺
阵雨

TAF: YPPH 202257Z 2100/2206 28018KT 9999 -SHRA SCT030 BKN035 BECMG 2106/2108 24016KT 9999 BKN035 FM211200 22010KT 9999 BKN045 INTER 2102/2107 27020G30KT 4000 SHRA BKN015

超过4000个机场的气象观测和天气预报(METAR&TAF报告)。

可查询的气象台以黄色和红色小点在地图上表示。

将鼠标移到小点上方,可查看气象台名称。

然后点击查看天气观测和预报。

如需切换地图:点击带黑十字的绿色按钮放大地图;点击带横线的绿色按钮缩小地图;或者点击绿色箭头查看邻近地区的地图。


METAR-TAF: